sensor_id;sensor_type;location;lat;lon;timestamp;pressure;altitude;pressure_sealevel;temperature;humidity
6506;BME280;3286;49.858;8.768;2022-07-17T00:02:19;100139.13;;;16.25;43.38
6506;BME280;3286;49.858;8.768;2022-07-17T00:04:48;100145.44;;;16.15;43.79
6506;BME280;3286;49.858;8.768;2022-07-17T00:07:14;100142.31;;;16.70;42.84
6506;BME280;3286;49.858;8.768;2022-07-17T00:09:41;100144.97;;;16.70;43.28
6506;BME280;3286;49.858;8.768;2022-07-17T00:12:08;100150.13;;;16.38;43.48
6506;BME280;3286;49.858;8.768;2022-07-17T00:14:34;100156.06;;;16.07;43.79
6506;BME280;3286;49.858;8.768;2022-07-17T00:17:01;100148.97;;;16.32;43.12
6506;BME280;3286;49.858;8.768;2022-07-17T00:19:28;100140.78;;;16.26;43.34
6506;BME280;3286;49.858;8.768;2022-07-17T00:21:56;100147.19;;;15.90;44.08
6506;BME280;3286;49.858;8.768;2022-07-17T00:24:23;100141.81;;;16.41;43.38
6506;BME280;3286;49.858;8.768;2022-07-17T00:26:50;100137.25;;;16.08;43.62
6506;BME280;3286;49.858;8.768;2022-07-17T00:29:18;100149.66;;;16.51;42.72
6506;BME280;3286;49.858;8.768;2022-07-17T00:31:45;100143.59;;;16.16;43.78
6506;BME280;3286;49.858;8.768;2022-07-17T00:34:12;100142.97;;;15.71;44.53
6506;BME280;3286;49.858;8.768;2022-07-17T00:36:39;100145.31;;;15.82;44.57
6506;BME280;3286;49.858;8.768;2022-07-17T00:39:07;100140.94;;;16.07;43.95
6506;BME280;3286;49.858;8.768;2022-07-17T00:41:33;100142.91;;;15.62;44.85
6506;BME280;3286;49.858;8.768;2022-07-17T00:44:04;100141.13;;;15.71;44.86
6506;BME280;3286;49.858;8.768;2022-07-17T00:46:31;100141.91;;;15.63;44.96
6506;BME280;3286;49.858;8.768;2022-07-17T00:48:58;100135.09;;;15.61;45.13
6506;BME280;3286;49.858;8.768;2022-07-17T00:51:25;100135.88;;;15.18;46.27
6506;BME280;3286;49.858;8.768;2022-07-17T00:53:52;100135.84;;;15.10;46.75
6506;BME280;3286;49.858;8.768;2022-07-17T00:56:21;100131.50;;;15.35;45.80
6506;BME280;3286;49.858;8.768;2022-07-17T00:58:50;100139.69;;;15.16;46.08
6506;BME280;3286;49.858;8.768;2022-07-17T01:01:17;100130.59;;;15.27;45.55
6506;BME280;3286;49.858;8.768;2022-07-17T01:03:44;100132.78;;;15.66;45.08
6506;BME280;3286;49.858;8.768;2022-07-17T01:06:11;100132.16;;;14.85;47.11
6506;BME280;3286;49.858;8.768;2022-07-17T01:08:37;100140.75;;;14.78;46.81
6506;BME280;3286;49.858;8.768;2022-07-17T01:11:05;100143.75;;;15.02;46.72
6506;BME280;3286;49.858;8.768;2022-07-17T01:13:33;100145.06;;;15.24;45.96
6506;BME280;3286;49.858;8.768;2022-07-17T01:16:00;100157.41;;;15.07;46.72
6506;BME280;3286;49.858;8.768;2022-07-17T01:18:27;100152.72;;;15.54;45.61
6506;BME280;3286;49.858;8.768;2022-07-17T01:20:54;100149.69;;;14.96;46.52
6506;BME280;3286;49.858;8.768;2022-07-17T01:23:22;100144.56;;;14.94;46.79
6506;BME280;3286;49.858;8.768;2022-07-17T01:25:49;100151.81;;;14.29;48.24
6506;BME280;3286;49.858;8.768;2022-07-17T01:28:16;100144.56;;;14.58;47.79
6506;BME280;3286;49.858;8.768;2022-07-17T01:30:47;100143.03;;;14.37;47.56
6506;BME280;3286;49.858;8.768;2022-07-17T01:33:15;100146.75;;;14.44;47.81
6506;BME280;3286;49.858;8.768;2022-07-17T01:35:41;100141.66;;;14.69;47.10
6506;BME280;3286;49.858;8.768;2022-07-17T01:38:08;100152.19;;;14.53;47.57
6506;BME280;3286;49.858;8.768;2022-07-17T01:40:36;100141.13;;;14.84;46.91
6506;BME280;3286;49.858;8.768;2022-07-17T01:43:03;100132.47;;;14.63;47.45
6506;BME280;3286;49.858;8.768;2022-07-17T01:45:30;100139.94;;;15.04;46.90
6506;BME280;3286;49.858;8.768;2022-07-17T01:47:56;100146.38;;;14.57;47.50
6506;BME280;3286;49.858;8.768;2022-07-17T01:50:23;100139.03;;;14.51;47.68
6506;BME280;3286;49.858;8.768;2022-07-17T01:52:50;100146.75;;;14.44;48.05
6506;BME280;3286;49.858;8.768;2022-07-17T01:55:17;100145.25;;;14.60;48.21
6506;BME280;3286;49.858;8.768;2022-07-17T01:57:45;100137.03;;;14.35;48.31
6506;BME280;3286;49.858;8.768;2022-07-17T02:00:13;100138.31;;;14.67;47.71
6506;BME280;3286;49.858;8.768;2022-07-17T02:02:41;100140.19;;;14.48;47.69
6506;BME280;3286;49.858;8.768;2022-07-17T02:05:08;100141.84;;;14.31;47.91
6506;BME280;3286;49.858;8.768;2022-07-17T02:07:35;100136.13;;;14.08;49.22
6506;BME280;3286;49.858;8.768;2022-07-17T02:10:06;100145.09;;;14.25;48.31
6506;BME280;3286;49.858;8.768;2022-07-17T02:12:33;100151.88;;;13.91;49.97
6506;BME280;3286;49.858;8.768;2022-07-17T02:15:02;100146.97;;;13.97;49.00
6506;BME280;3286;49.858;8.768;2022-07-17T02:17:28;100153.31;;;13.58;49.87
6506;BME280;3286;49.858;8.768;2022-07-17T02:19:55;100155.63;;;14.17;48.61
6506;BME280;3286;49.858;8.768;2022-07-17T02:22:22;100153.91;;;13.80;49.48
6506;BME280;3286;49.858;8.768;2022-07-17T02:24:48;100148.00;;;13.58;50.09
6506;BME280;3286;49.858;8.768;2022-07-17T02:27:15;100150.50;;;13.87;49.31
6506;BME280;3286;49.858;8.768;2022-07-17T02:29:42;100150.91;;;13.93;49.46
6506;BME280;3286;49.858;8.768;2022-07-17T02:32:10;100144.91;;;13.62;49.92
6506;BME280;3286;49.858;8.768;2022-07-17T02:34:36;100140.88;;;13.86;49.29
6506;BME280;3286;49.858;8.768;2022-07-17T02:37:03;100146.78;;;13.80;49.44
6506;BME280;3286;49.858;8.768;2022-07-17T02:39:30;100144.44;;;13.77;49.29
6506;BME280;3286;49.858;8.768;2022-07-17T02:41:57;100158.84;;;13.27;50.74
6506;BME280;3286;49.858;8.768;2022-07-17T02:44:23;100154.78;;;13.70;49.67
6506;BME280;3286;49.858;8.768;2022-07-17T02:46:50;100157.03;;;13.27;50.59
6506;BME280;3286;49.858;8.768;2022-07-17T02:49:18;100161.47;;;13.46;50.45
6506;BME280;3286;49.858;8.768;2022-07-17T02:51:45;100153.78;;;13.43;49.87
6506;BME280;3286;49.858;8.768;2022-07-17T02:54:11;100155.91;;;13.30;50.11
6506;BME280;3286;49.858;8.768;2022-07-17T02:56:38;100161.84;;;12.94;50.79
6506;BME280;3286;49.858;8.768;2022-07-17T02:59:05;100160.03;;;12.95;51.28
6506;BME280;3286;49.858;8.768;2022-07-17T03:01:31;100156.44;;;12.56;52.46
6506;BME280;3286;49.858;8.768;2022-07-17T03:03:58;100148.66;;;13.22;50.46
6506;BME280;3286;49.858;8.768;2022-07-17T03:06:26;100154.03;;;13.40;49.82
6506;BME280;3286;49.858;8.768;2022-07-17T03:08:53;100154.66;;;13.24;50.64
6506;BME280;3286;49.858;8.768;2022-07-17T03:11:20;100151.63;;;13.09;51.16
6506;BME280;3286;49.858;8.768;2022-07-17T03:13:46;100144.69;;;13.46;50.06
6506;BME280;3286;49.858;8.768;2022-07-17T03:16:13;100155.00;;;13.01;51.49
6506;BME280;3286;49.858;8.768;2022-07-17T03:18:39;100146.34;;;12.99;51.20
6506;BME280;3286;49.858;8.768;2022-07-17T03:21:06;100147.94;;;13.30;50.37
6506;BME280;3286;49.858;8.768;2022-07-17T03:23:34;100145.22;;;13.02;51.09
6506;BME280;3286;49.858;8.768;2022-07-17T03:26:01;100152.19;;;13.03;51.46
6506;BME280;3286;49.858;8.768;2022-07-17T03:28:27;100154.88;;;12.83;51.44
6506;BME280;3286;49.858;8.768;2022-07-17T03:30:54;100146.84;;;13.23;50.09
6506;BME280;3286;49.858;8.768;2022-07-17T03:33:21;100141.63;;;13.51;50.03
6506;BME280;3286;49.858;8.768;2022-07-17T03:35:48;100144.81;;;12.97;51.85
6506;BME280;3286;49.858;8.768;2022-07-17T03:38:14;100152.78;;;12.28;53.86
6506;BME280;3286;49.858;8.768;2022-07-17T03:40:42;100148.34;;;12.68;52.56
6506;BME280;3286;49.858;8.768;2022-07-17T03:43:09;100158.53;;;12.43;53.21
6506;BME280;3286;49.858;8.768;2022-07-17T03:45:36;100161.41;;;13.09;51.14
6506;BME280;3286;49.858;8.768;2022-07-17T03:48:03;100154.47;;;12.58;52.34
6506;BME280;3286;49.858;8.768;2022-07-17T03:50:29;100157.69;;;12.72;52.28
6506;BME280;3286;49.858;8.768;2022-07-17T03:52:56;100155.59;;;12.85;51.61
6506;BME280;3286;49.858;8.768;2022-07-17T03:55:23;100156.72;;;12.63;52.01
6506;BME280;3286;49.858;8.768;2022-07-17T03:57:51;100158.25;;;12.66;52.38
6506;BME280;3286;49.858;8.768;2022-07-17T04:00:18;100158.19;;;13.05;51.75
6506;BME280;3286;49.858;8.768;2022-07-17T04:02:45;100160.75;;;12.87;51.66
6506;BME280;3286;49.858;8.768;2022-07-17T04:05:12;100158.63;;;12.90;51.90
6506;BME280;3286;49.858;8.768;2022-07-17T04:07:40;100166.59;;;12.81;52.77
6506;BME280;3286;49.858;8.768;2022-07-17T04:10:08;100158.09;;;12.77;52.27
6506;BME280;3286;49.858;8.768;2022-07-17T04:12:35;100162.66;;;13.04;51.91
6506;BME280;3286;49.858;8.768;2022-07-17T04:15:04;100163.50;;;13.05;52.18
6506;BME280;3286;49.858;8.768;2022-07-17T04:17:31;100169.00;;;12.64;53.33
6506;BME280;3286;49.858;8.768;2022-07-17T04:19:58;100163.03;;;13.29;51.27
6506;BME280;3286;49.858;8.768;2022-07-17T04:22:25;100161.47;;;13.37;51.16
6506;BME280;3286;49.858;8.768;2022-07-17T04:24:52;100169.16;;;13.30;51.50
6506;BME280;3286;49.858;8.768;2022-07-17T04:27:19;100168.25;;;13.01;52.69
6506;BME280;3286;49.858;8.768;2022-07-17T04:29:46;100175.81;;;12.86;52.80
6506;BME280;3286;49.858;8.768;2022-07-17T04:32:14;100179.97;;;12.99;53.31
6506;BME280;3286;49.858;8.768;2022-07-17T04:34:40;100180.34;;;13.33;51.93
6506;BME280;3286;49.858;8.768;2022-07-17T04:37:07;100179.28;;;13.07;53.69
6506;BME280;3286;49.858;8.768;2022-07-17T04:39:34;100177.41;;;13.37;52.49
6506;BME280;3286;49.858;8.768;2022-07-17T04:42:00;100181.84;;;13.84;52.03
6506;BME280;3286;49.858;8.768;2022-07-17T04:44:27;100186.53;;;14.18;50.96
6506;BME280;3286;49.858;8.768;2022-07-17T04:46:54;100187.78;;;14.24;50.87
6506;BME280;3286;49.858;8.768;2022-07-17T04:49:22;100187.78;;;13.96;52.02
6506;BME280;3286;49.858;8.768;2022-07-17T04:51:49;100190.66;;;14.12;51.37
6506;BME280;3286;49.858;8.768;2022-07-17T04:54:16;100191.66;;;14.29;50.74
6506;BME280;3286;49.858;8.768;2022-07-17T04:56:42;100192.06;;;14.53;49.91
6506;BME280;3286;49.858;8.768;2022-07-17T04:59:09;100191.78;;;14.74;49.61
6506;BME280;3286;49.858;8.768;2022-07-17T05:01:36;100203.28;;;14.46;50.35
6506;BME280;3286;49.858;8.768;2022-07-17T05:04:02;100199.63;;;14.66;49.31
6506;BME280;3286;49.858;8.768;2022-07-17T05:06:31;100199.31;;;15.05;48.97
6506;BME280;3286;49.858;8.768;2022-07-17T05:08:57;100196.97;;;15.28;47.40
6506;BME280;3286;49.858;8.768;2022-07-17T05:11:24;100207.94;;;15.25;47.62
6506;BME280;3286;49.858;8.768;2022-07-17T05:13:51;100203.13;;;15.02;48.38
6506;BME280;3286;49.858;8.768;2022-07-17T05:16:17;100203.06;;;15.39;47.78
6506;BME280;3286;49.858;8.768;2022-07-17T05:18:44;100202.25;;;15.73;46.21
6506;BME280;3286;49.858;8.768;2022-07-17T05:21:11;100202.84;;;15.93;46.37
6506;BME280;3286;49.858;8.768;2022-07-17T05:23:41;100204.72;;;15.40;48.19
6506;BME280;3286;49.858;8.768;2022-07-17T05:26:07;100202.78;;;15.50;47.93
6506;BME280;3286;49.858;8.768;2022-07-17T05:28:34;100205.72;;;15.73;47.42
6506;BME280;3286;49.858;8.768;2022-07-17T05:31:01;100198.63;;;15.82;46.68
6506;BME280;3286;49.858;8.768;2022-07-17T05:33:27;100205.53;;;15.40;48.02
6506;BME280;3286;49.858;8.768;2022-07-17T05:35:54;100209.38;;;15.72;47.16
6506;BME280;3286;49.858;8.768;2022-07-17T05:38:21;100208.03;;;15.68;47.16
6506;BME280;3286;49.858;8.768;2022-07-17T05:40:49;100214.50;;;15.92;46.78
6506;BME280;3286;49.858;8.768;2022-07-17T05:43:15;100215.81;;;16.39;45.94
6506;BME280;3286;49.858;8.768;2022-07-17T05:45:42;100214.16;;;16.46;45.52
6506;BME280;3286;49.858;8.768;2022-07-17T05:48:09;100215.34;;;16.60;45.22
6506;BME280;3286;49.858;8.768;2022-07-17T05:50:36;100213.38;;;16.79;44.15
6506;BME280;3286;49.858;8.768;2022-07-17T05:53:02;100206.66;;;16.50;45.39
6506;BME280;3286;49.858;8.768;2022-07-17T05:55:29;100212.38;;;17.13;43.82
6506;BME280;3286;49.858;8.768;2022-07-17T05:57:57;100211.56;;;17.04;44.18
6506;BME280;3286;49.858;8.768;2022-07-17T06:00:24;100218.25;;;17.00;44.59
6506;BME280;3286;49.858;8.768;2022-07-17T06:02:50;100213.38;;;17.12;43.91
6506;BME280;3286;49.858;8.768;2022-07-17T06:05:17;100212.81;;;17.50;43.06
6506;BME280;3286;49.858;8.768;2022-07-17T06:07:44;100217.84;;;17.28;43.69
6506;BME280;3286;49.858;8.768;2022-07-17T06:10:11;100204.97;;;17.48;43.38
6506;BME280;3286;49.858;8.768;2022-07-17T06:12:38;100222.66;;;17.58;43.23
6506;BME280;3286;49.858;8.768;2022-07-17T06:15:07;100223.66;;;17.57;43.49
6506;BME280;3286;49.858;8.768;2022-07-17T06:17:33;100214.47;;;18.07;41.88
6506;BME280;3286;49.858;8.768;2022-07-17T06:20:00;100226.66;;;18.10;41.54
6506;BME280;3286;49.858;8.768;2022-07-17T06:22:27;100220.78;;;18.15;42.23
6506;BME280;3286;49.858;8.768;2022-07-17T06:24:54;100232.56;;;17.89;42.30
6506;BME280;3286;49.858;8.768;2022-07-17T06:27:21;100229.06;;;18.28;41.23
6506;BME280;3286;49.858;8.768;2022-07-17T06:29:47;100231.25;;;18.79;40.30
6506;BME280;3286;49.858;8.768;2022-07-17T06:32:16;100234.78;;;18.80;40.84
6506;BME280;3286;49.858;8.768;2022-07-17T06:34:43;100237.47;;;19.03;40.31
6506;BME280;3286;49.858;8.768;2022-07-17T06:37:09;100235.34;;;18.90;40.71
6506;BME280;3286;49.858;8.768;2022-07-17T06:39:36;100246.66;;;19.39;39.42
6506;BME280;3286;49.858;8.768;2022-07-17T06:42:03;100244.09;;;19.46;39.24
6506;BME280;3286;49.858;8.768;2022-07-17T06:44:30;100246.50;;;19.55;38.76
6506;BME280;3286;49.858;8.768;2022-07-17T06:46:57;100239.75;;;19.90;37.94
6506;BME280;3286;49.858;8.768;2022-07-17T06:49:25;100234.50;;;19.81;37.63
6506;BME280;3286;49.858;8.768;2022-07-17T06:51:51;100235.50;;;19.65;37.85
6506;BME280;3286;49.858;8.768;2022-07-17T06:54:18;100231.81;;;19.66;38.52
6506;BME280;3286;49.858;8.768;2022-07-17T06:56:48;100227.38;;;20.04;37.69
6506;BME280;3286;49.858;8.768;2022-07-17T06:59:15;100225.91;;;20.38;37.22
6506;BME280;3286;49.858;8.768;2022-07-17T07:01:42;100219.81;;;20.29;37.54
6506;BME280;3286;49.858;8.768;2022-07-17T07:04:08;100208.44;;;20.64;36.43
6506;BME280;3286;49.858;8.768;2022-07-17T07:06:37;100214.44;;;21.09;35.56
6506;BME280;3286;49.858;8.768;2022-07-17T07:09:03;100215.22;;;21.03;35.77
6506;BME280;3286;49.858;8.768;2022-07-17T07:11:30;100215.31;;;21.17;35.65
6506;BME280;3286;49.858;8.768;2022-07-17T07:13:57;100221.59;;;21.31;34.39
6506;BME280;3286;49.858;8.768;2022-07-17T07:16:24;100220.75;;;21.30;34.69
6506;BME280;3286;49.858;8.768;2022-07-17T07:18:52;100218.00;;;20.73;35.25
6506;BME280;3286;49.858;8.768;2022-07-17T07:21:18;100219.56;;;21.04;34.50
6506;BME280;3286;49.858;8.768;2022-07-17T07:23:46;100212.41;;;21.82;33.27
6506;BME280;3286;49.858;8.768;2022-07-17T07:26:13;100211.63;;;21.88;33.14
6506;BME280;3286;49.858;8.768;2022-07-17T07:28:40;100213.50;;;22.56;31.09
6506;BME280;3286;49.858;8.768;2022-07-17T07:31:07;100210.13;;;22.41;31.90
6506;BME280;3286;49.858;8.768;2022-07-17T07:33:33;100208.56;;;22.67;31.36
6506;BME280;3286;49.858;8.768;2022-07-17T07:36:00;100212.25;;;22.52;31.64
6506;BME280;3286;49.858;8.768;2022-07-17T07:38:27;100207.31;;;22.76;31.82
6506;BME280;3286;49.858;8.768;2022-07-17T07:40:55;100201.72;;;22.98;31.55
6506;BME280;3286;49.858;8.768;2022-07-17T07:43:22;100209.78;;;23.18;31.26
6506;BME280;3286;49.858;8.768;2022-07-17T07:45:49;100207.13;;;22.71;31.57
6506;BME280;3286;49.858;8.768;2022-07-17T07:48:16;100209.81;;;23.32;30.74
6506;BME280;3286;49.858;8.768;2022-07-17T07:50:43;100210.63;;;23.19;30.67
6506;BME280;3286;49.858;8.768;2022-07-17T07:53:09;100210.25;;;23.28;30.51
6506;BME280;3286;49.858;8.768;2022-07-17T07:55:36;100207.16;;;23.91;29.43
6506;BME280;3286;49.858;8.768;2022-07-17T07:58:06;100210.56;;;23.59;29.86
6506;BME280;3286;49.858;8.768;2022-07-17T08:00:34;100210.84;;;24.03;28.97
6506;BME280;3286;49.858;8.768;2022-07-17T08:03:01;100204.06;;;24.33;28.91
6506;BME280;3286;49.858;8.768;2022-07-17T08:05:28;100203.47;;;24.30;28.61
6506;BME280;3286;49.858;8.768;2022-07-17T08:07:54;100203.22;;;24.32;29.03
6506;BME280;3286;49.858;8.768;2022-07-17T08:10:21;100195.22;;;24.19;28.86
6506;BME280;3286;49.858;8.768;2022-07-17T08:12:48;100190.91;;;24.43;28.71
6506;BME280;3286;49.858;8.768;2022-07-17T08:15:19;100196.53;;;24.99;28.22
6506;BME280;3286;49.858;8.768;2022-07-17T08:17:46;100195.59;;;25.12;27.95
6506;BME280;3286;49.858;8.768;2022-07-17T08:20:14;100187.03;;;24.64;28.08
6506;BME280;3286;49.858;8.768;2022-07-17T08:22:41;100187.53;;;25.30;28.50
6506;BME280;3286;49.858;8.768;2022-07-17T08:25:08;100180.56;;;24.97;28.49
6506;BME280;3286;49.858;8.768;2022-07-17T08:27:36;100184.03;;;25.23;27.01
6506;BME280;3286;49.858;8.768;2022-07-17T08:30:03;100176.84;;;25.36;27.25
6506;BME280;3286;49.858;8.768;2022-07-17T08:32:32;100169.75;;;25.60;26.58
6506;BME280;3286;49.858;8.768;2022-07-17T08:34:59;100177.03;;;25.59;26.06
6506;BME280;3286;49.858;8.768;2022-07-17T08:37:25;100174.41;;;26.02;26.27
6506;BME280;3286;49.858;8.768;2022-07-17T08:39:52;100170.69;;;26.34;25.16
6506;BME280;3286;49.858;8.768;2022-07-17T08:42:19;100169.00;;;26.21;25.72
6506;BME280;3286;49.858;8.768;2022-07-17T08:44:46;100167.09;;;26.21;25.11
6506;BME280;3286;49.858;8.768;2022-07-17T08:47:14;100171.91;;;25.70;25.78
6506;BME280;3286;49.858;8.768;2022-07-17T08:49:45;100172.38;;;26.16;25.72
6506;BME280;3286;49.858;8.768;2022-07-17T08:52:13;100169.28;;;26.12;24.52
6506;BME280;3286;49.858;8.768;2022-07-17T08:54:40;100162.63;;;26.69;24.77
6506;BME280;3286;49.858;8.768;2022-07-17T08:57:07;100157.97;;;26.34;25.00
6506;BME280;3286;49.858;8.768;2022-07-17T08:59:34;100158.09;;;26.09;23.92
6506;BME280;3286;49.858;8.768;2022-07-17T09:02:04;100155.78;;;26.55;24.38
6506;BME280;3286;49.858;8.768;2022-07-17T09:04:30;100143.66;;;26.81;23.59
6506;BME280;3286;49.858;8.768;2022-07-17T09:07:00;100154.38;;;26.76;23.75
6506;BME280;3286;49.858;8.768;2022-07-17T09:09:31;100154.72;;;26.56;23.48
6506;BME280;3286;49.858;8.768;2022-07-17T09:11:59;100149.88;;;27.29;22.73
6506;BME280;3286;49.858;8.768;2022-07-17T09:14:36;100156.06;;;27.77;22.85
6506;BME280;3286;49.858;8.768;2022-07-17T09:17:04;100153.72;;;27.04;23.21
6506;BME280;3286;49.858;8.768;2022-07-17T09:19:34;100147.44;;;27.16;23.12
6506;BME280;3286;49.858;8.768;2022-07-17T09:22:07;100145.88;;;26.60;23.96
6506;BME280;3286;49.858;8.768;2022-07-17T09:24:44;100143.38;;;27.54;23.06
6506;BME280;3286;49.858;8.768;2022-07-17T09:27:13;100148.66;;;26.96;23.11
6506;BME280;3286;49.858;8.768;2022-07-17T09:29:51;100154.81;;;27.44;22.37
6506;BME280;3286;49.858;8.768;2022-07-17T09:32:18;100156.63;;;26.91;22.68
6506;BME280;3286;49.858;8.768;2022-07-17T09:34:46;100157.81;;;26.83;23.33
6506;BME280;3286;49.858;8.768;2022-07-17T09:37:14;100156.13;;;26.70;23.46
6506;BME280;3286;49.858;8.768;2022-07-17T09:39:41;100157.91;;;26.53;23.74
6506;BME280;3286;49.858;8.768;2022-07-17T09:42:08;100159.44;;;27.44;22.37
6506;BME280;3286;49.858;8.768;2022-07-17T09:44:35;100147.22;;;28.28;21.70
6506;BME280;3286;49.858;8.768;2022-07-17T09:47:03;100143.38;;;28.24;21.67
6506;BME280;3286;49.858;8.768;2022-07-17T09:49:30;100150.06;;;28.04;21.99
6506;BME280;3286;49.858;8.768;2022-07-17T09:51:59;100137.94;;;28.58;21.21
6506;BME280;3286;49.858;8.768;2022-07-17T09:54:31;100136.41;;;29.19;21.30
6506;BME280;3286;49.858;8.768;2022-07-17T09:56:58;100126.25;;;29.54;20.34
6506;BME280;3286;49.858;8.768;2022-07-17T09:59:28;100138.25;;;29.35;21.32
6506;BME280;3286;49.858;8.768;2022-07-17T10:01:57;100137.38;;;29.74;21.65
6506;BME280;3286;49.858;8.768;2022-07-17T10:04:26;100143.88;;;29.46;20.39
6506;BME280;3286;49.858;8.768;2022-07-17T10:06:55;100133.75;;;30.18;19.95
6506;BME280;3286;49.858;8.768;2022-07-17T10:09:22;100141.28;;;28.14;21.27
6506;BME280;3286;49.858;8.768;2022-07-17T10:11:51;100139.66;;;28.99;21.20
6506;BME280;3286;49.858;8.768;2022-07-17T10:14:18;100135.66;;;28.50;20.78
6506;BME280;3286;49.858;8.768;2022-07-17T10:16:45;100134.28;;;29.43;20.15
6506;BME280;3286;49.858;8.768;2022-07-17T10:19:17;100130.09;;;30.35;19.58
6506;BME280;3286;49.858;8.768;2022-07-17T10:21:55;100124.34;;;30.64;18.90
6506;BME280;3286;49.858;8.768;2022-07-17T10:24:22;100116.84;;;30.49;18.53
6506;BME280;3286;49.858;8.768;2022-07-17T10:26:51;100125.03;;;29.94;19.26
6506;BME280;3286;49.858;8.768;2022-07-17T10:29:29;100134.38;;;29.76;18.40
6506;BME280;3286;49.858;8.768;2022-07-17T10:31:56;100125.72;;;30.67;17.78
6506;BME280;3286;49.858;8.768;2022-07-17T10:34:37;100129.44;;;30.98;17.71
6506;BME280;3286;49.858;8.768;2022-07-17T10:37:14;100128.91;;;30.58;18.21
6506;BME280;3286;49.858;8.768;2022-07-17T10:39:51;100128.84;;;30.86;17.78
6506;BME280;3286;49.858;8.768;2022-07-17T10:42:54;100124.22;;;31.40;17.89
6506;BME280;3286;49.858;8.768;2022-07-17T10:45:25;100128.34;;;30.99;17.50
6506;BME280;3286;49.858;8.768;2022-07-17T10:47:55;100134.75;;;30.72;18.41
6506;BME280;3286;49.858;8.768;2022-07-17T10:50:25;100126.88;;;30.43;18.13
6506;BME280;3286;49.858;8.768;2022-07-17T10:53:00;100131.03;;;30.89;18.21
6506;BME280;3286;49.858;8.768;2022-07-17T10:55:27;100126.75;;;30.60;18.50
6506;BME280;3286;49.858;8.768;2022-07-17T10:57:56;100121.50;;;30.54;19.00
6506;BME280;3286;49.858;8.768;2022-07-17T11:00:26;100122.38;;;30.59;17.59
6506;BME280;3286;49.858;8.768;2022-07-17T11:02:53;100119.97;;;31.11;17.31
6506;BME280;3286;49.858;8.768;2022-07-17T11:05:19;100118.81;;;30.59;17.14
6506;BME280;3286;49.858;8.768;2022-07-17T11:07:51;100125.00;;;29.89;18.31
6506;BME280;3286;49.858;8.768;2022-07-17T11:10:18;100116.50;;;30.78;18.44
6506;BME280;3286;49.858;8.768;2022-07-17T11:12:47;100112.84;;;31.69;18.18
6506;BME280;3286;49.858;8.768;2022-07-17T11:15:16;100107.38;;;31.69;17.70
6506;BME280;3286;49.858;8.768;2022-07-17T11:17:48;100108.25;;;31.90;16.83
6506;BME280;3286;49.858;8.768;2022-07-17T11:20:15;100118.66;;;30.05;18.39
6506;BME280;3286;49.858;8.768;2022-07-17T11:22:43;100112.78;;;31.43;17.87
6506;BME280;3286;49.858;8.768;2022-07-17T11:25:10;100116.50;;;30.78;17.05
6506;BME280;3286;49.858;8.768;2022-07-17T11:27:37;100107.28;;;31.38;16.88
6506;BME280;3286;49.858;8.768;2022-07-17T11:30:09;100111.88;;;31.21;16.25
6506;BME280;3286;49.858;8.768;2022-07-17T11:32:40;100105.53;;;31.90;16.19
6506;BME280;3286;49.858;8.768;2022-07-17T11:35:18;100095.94;;;31.77;15.46
6506;BME280;3286;49.858;8.768;2022-07-17T11:37:50;100094.91;;;32.04;16.21
6506;BME280;3286;49.858;8.768;2022-07-17T11:40:17;100100.91;;;32.53;15.21
6506;BME280;3286;49.858;8.768;2022-07-17T11:42:44;100101.66;;;31.70;16.15
6506;BME280;3286;49.858;8.768;2022-07-17T11:45:12;100094.66;;;32.36;15.06
6506;BME280;3286;49.858;8.768;2022-07-17T11:47:40;100096.44;;;31.58;15.77
6506;BME280;3286;49.858;8.768;2022-07-17T11:50:09;100101.16;;;30.61;16.36
6506;BME280;3286;49.858;8.768;2022-07-17T11:52:42;100101.88;;;31.43;16.27
6506;BME280;3286;49.858;8.768;2022-07-17T11:55:12;100102.63;;;30.79;16.52
6506;BME280;3286;49.858;8.768;2022-07-17T11:57:44;100099.63;;;31.34;16.24
6506;BME280;3286;49.858;8.768;2022-07-17T12:00:16;100088.69;;;31.29;17.05
6506;BME280;3286;49.858;8.768;2022-07-17T12:02:44;100093.16;;;31.56;15.46
6506;BME280;3286;49.858;8.768;2022-07-17T12:05:24;100089.69;;;31.76;15.85
6506;BME280;3286;49.858;8.768;2022-07-17T12:07:52;100086.41;;;32.00;15.55
6506;BME280;3286;49.858;8.768;2022-07-17T12:10:21;100098.03;;;31.44;15.80
6506;BME280;3286;49.858;8.768;2022-07-17T12:12:55;100078.16;;;31.64;15.94
6506;BME280;3286;49.858;8.768;2022-07-17T12:15:35;100082.44;;;30.81;16.88
6506;BME280;3286;49.858;8.768;2022-07-17T12:18:04;100082.47;;;31.44;16.86
6506;BME280;3286;49.858;8.768;2022-07-17T12:20:42;100076.59;;;32.04;16.17
6506;BME280;3286;49.858;8.768;2022-07-17T12:23:25;100081.69;;;31.64;15.74
6506;BME280;3286;49.858;8.768;2022-07-17T12:26:03;100076.03;;;32.23;16.15
6506;BME280;3286;49.858;8.768;2022-07-17T12:28:30;100078.03;;;31.23;15.48
6506;BME280;3286;49.858;8.768;2022-07-17T12:30:57;100074.13;;;31.92;15.58
6506;BME280;3286;49.858;8.768;2022-07-17T12:33:25;100066.66;;;30.45;16.26
6506;BME280;3286;49.858;8.768;2022-07-17T12:35:52;100070.31;;;31.83;15.26
6506;BME280;3286;49.858;8.768;2022-07-17T12:38:18;100068.94;;;32.06;15.91
6506;BME280;3286;49.858;8.768;2022-07-17T12:40:47;100055.50;;;32.62;13.88
6506;BME280;3286;49.858;8.768;2022-07-17T12:43:13;100055.06;;;31.18;14.75
6506;BME280;3286;49.858;8.768;2022-07-17T12:45:43;100047.63;;;31.93;14.74
6506;BME280;3286;49.858;8.768;2022-07-17T12:48:10;100049.25;;;32.30;13.88
6506;BME280;3286;49.858;8.768;2022-07-17T12:50:38;100051.69;;;32.68;14.01
6506;BME280;3286;49.858;8.768;2022-07-17T12:53:05;100046.81;;;33.20;12.83
6506;BME280;3286;49.858;8.768;2022-07-17T12:55:32;100037.50;;;33.21;13.99
6506;BME280;3286;49.858;8.768;2022-07-17T12:57:59;100029.28;;;31.73;13.16
6506;BME280;3286;49.858;8.768;2022-07-17T13:00:28;100048.69;;;30.11;13.91
6506;BME280;3286;49.858;8.768;2022-07-17T13:02:58;100044.75;;;31.26;13.38
6506;BME280;3286;49.858;8.768;2022-07-17T13:05:28;100046.75;;;31.72;12.40
6506;BME280;3286;49.858;8.768;2022-07-17T13:07:56;100035.31;;;32.27;11.97
6506;BME280;3286;49.858;8.768;2022-07-17T13:10:23;100050.78;;;31.33;12.24
6506;BME280;3286;49.858;8.768;2022-07-17T13:12:55;100044.25;;;30.75;12.54
6506;BME280;3286;49.858;8.768;2022-07-17T13:15:22;100036.97;;;31.97;13.17